createdAt,value
2023-02-17T00:28:33.854Z,23.90
2023-02-17T00:58:36.698Z,24.47
2023-02-17T01:28:40.820Z,21.90
2023-02-17T01:58:43.625Z,23.47
2023-02-17T02:28:47.177Z,21.83
2023-02-17T02:58:50.087Z,18.47
2023-02-17T03:28:53.771Z,18.87
2023-02-17T03:58:56.742Z,20.20
2023-02-17T04:29:01.568Z,19.57
2023-02-17T04:59:05.388Z,21.07
2023-02-17T05:29:08.359Z,22.40
2023-02-17T05:59:11.847Z,23.27
2023-02-17T06:29:15.544Z,18.57
2023-02-17T06:59:18.900Z,25.10
2023-02-17T07:29:21.872Z,20.80
2023-02-17T07:59:25.559Z,17.80
2023-02-17T08:29:29.190Z,20.70
2023-02-17T08:59:32.574Z,18.07
2023-02-17T09:29:36.279Z,19.90
2023-02-17T09:59:39.579Z,19.23
2023-02-17T10:29:45.143Z,16.43
2023-02-17T10:59:49.651Z,18.47
2023-02-17T11:29:52.704Z,16.03
2023-02-17T11:59:56.340Z,18.00
2023-02-17T12:29:59.548Z,14.97
2023-02-17T13:00:03.304Z,15.93
2023-02-17T13:30:07.674Z,14.23
2023-02-17T14:00:11.162Z,12.97
2023-02-17T14:30:14.254Z,10.77
2023-02-17T15:00:17.776Z,10.57
2023-02-17T15:30:20.889Z,10.33
2023-02-17T16:00:24.411Z,9.53
2023-02-17T16:30:28.164Z,7.47
2023-02-17T17:00:31.857Z,6.33
2023-02-17T17:30:34.999Z,5.60
2023-02-17T18:00:38.644Z,4.27
2023-02-17T18:30:42.670Z,3.53
2023-02-17T19:00:46.411Z,3.77
2023-02-17T19:30:53.147Z,4.10
2023-02-17T20:00:56.155Z,1.10
2023-02-17T20:31:00.481Z,1.10
2023-02-17T21:01:03.790Z,0.90
2023-02-17T21:31:08.004Z,1.50
2023-02-17T22:01:11.007Z,0.50
2023-02-17T22:31:15.452Z,1.27
2023-02-17T23:01:18.958Z,1.20
2023-02-17T23:31:21.895Z,1.33
